Time;durP1;ratioP1;P1;durP2;ratioP2;P2;SDS_P1;SDS_P2;PMS_P1;PMS_P2;Temp;Humidity;BMP_temperature;BMP_pressure;BME280_temperature;BME280_humidity;BME280_pressure;Samples;Min_cycle;Max_cycle;Signal;HPM_P1;HPM_P2
2021/11/24 00:01:45;;;;;;;1.15;0.75;;;7.50;99.90;;;;;;4436815;32;20085;-71
2021/11/24 00:04:11;;;;;;;0.88;0.70;;;7.50;99.90;;;;;;4431762;32;20072;-70
2021/11/24 00:06:36;;;;;;;3.20;1.08;;;7.50;99.90;;;;;;4428120;32;20072;-70
2021/11/24 00:09:02;;;;;;;1.37;1.05;;;7.50;99.90;;;;;;4429396;32;20072;-70
2021/11/24 00:11:28;;;;;;;1.60;1.10;;;7.50;99.90;;;;;;4428150;32;20077;-70
2021/11/24 00:13:55;;;;;;;0.80;0.80;;;7.40;99.90;;;;;;4429871;32;20573;-70
2021/11/24 00:16:21;;;;;;;0.60;0.60;;;7.40;99.90;;;;;;4429216;32;20069;-71
2021/11/24 00:18:47;;;;;;;0.60;0.60;;;7.40;99.90;;;;;;4427786;32;20120;-71
2021/11/24 00:21:12;;;;;;;1.65;0.93;;;7.40;99.90;;;;;;4429538;32;20065;-71
2021/11/24 00:23:38;;;;;;;2.33;1.15;;;7.40;99.90;;;;;;4429778;32;20132;-70
2021/11/24 00:26:04;;;;;;;2.53;1.33;;;7.40;99.90;;;;;;4435320;32;20104;-70
2021/11/24 00:28:29;;;;;;;0.73;0.70;;;7.40;99.90;;;;;;4431046;32;20294;-70
2021/11/24 00:30:55;;;;;;;1.33;0.95;;;7.40;99.90;;;;;;4428157;32;20445;-70
2021/11/24 00:33:21;;;;;;;0.40;0.40;;;7.40;99.90;;;;;;4429111;32;20069;-70
2021/11/24 00:35:46;;;;;;;3.80;0.75;;;7.50;99.90;;;;;;4427277;32;20124;-71
2021/11/24 00:38:12;;;;;;;0.62;0.62;;;7.50;99.90;;;;;;4427560;32;20073;-71
2021/11/24 00:40:38;;;;;;;0.50;0.50;;;7.50;99.90;;;;;;4428409;32;20486;-70
2021/11/24 00:43:04;;;;;;;2.05;1.02;;;7.50;99.90;;;;;;4431338;32;20130;-70
2021/11/24 00:45:30;;;;;;;0.60;0.60;;;7.50;99.90;;;;;;4428174;32;20061;-70
2021/11/24 00:47:56;;;;;;;1.73;1.27;;;7.50;99.90;;;;;;4428888;32;20086;-71
2021/11/24 00:50:21;;;;;;;2.92;1.00;;;7.60;99.90;;;;;;4427285;32;20058;-71
2021/11/24 00:52:51;;;;;;;4.40;1.62;;;7.60;99.90;;;;;;4426942;32;20081;-71
2021/11/24 00:55:16;;;;;;;1.08;0.98;;;7.60;99.90;;;;;;4433000;32;20085;-71
2021/11/24 00:57:42;;;;;;;0.40;0.40;;;7.60;99.90;;;;;;4429549;32;20072;-71
2021/11/24 01:00:08;;;;;;;1.25;1.08;;;7.60;99.90;;;;;;4429867;32;20392;-71
2021/11/24 01:02:33;;;;;;;6.97;0.95;;;7.60;99.90;;;;;;4430448;32;20124;-71
2021/11/24 01:04:59;;;;;;;1.87;1.37;;;7.60;99.90;;;;;;4427945;32;20045;-71
2021/11/24 01:07:24;;;;;;;12.57;1.17;;;7.60;99.90;;;;;;4430442;32;20530;-70
2021/11/24 01:09:51;;;;;;;1.75;1.08;;;7.60;99.90;;;;;;4426661;32;20381;-70
2021/11/24 01:12:20;;;;;;;1.30;1.20;;;7.60;99.90;;;;;;4428371;32;20128;-71
2021/11/24 01:14:45;;;;;;;2.10;1.00;;;7.60;99.90;;;;;;4436053;32;20077;-71
2021/11/24 01:17:11;;;;;;;2.47;1.48;;;7.60;99.90;;;;;;4428498;32;20467;-71
2021/11/24 01:19:36;;;;;;;1.30;1.20;;;7.60;99.90;;;;;;4428052;32;20121;-71
2021/11/24 01:22:02;;;;;;;1.00;0.82;;;7.60;99.90;;;;;;4427997;32;20073;-71
2021/11/24 01:24:28;;;;;;;0.62;0.60;;;7.60;99.90;;;;;;4427847;32;20065;-71
2021/11/24 01:26:53;;;;;;;0.50;0.50;;;7.60;99.90;;;;;;4429470;32;20510;-71
2021/11/24 01:29:19;;;;;;;1.00;0.88;;;7.70;99.90;;;;;;4427337;32;20507;-70
2021/11/24 01:31:44;;;;;;;1.55;1.05;;;7.60;99.90;;;;;;4430831;32;20090;-70
2021/11/24 01:34:09;;;;;;;0.77;0.73;;;7.60;99.90;;;;;;4428368;32;20069;-70
2021/11/24 01:36:35;;;;;;;1.95;1.20;;;7.60;99.90;;;;;;4426560;32;20532;-70
2021/11/24 01:39:00;;;;;;;3.95;1.12;;;7.60;99.90;;;;;;4431151;32;20110;-71
2021/11/24 01:41:26;;;;;;;1.25;0.95;;;7.60;99.90;;;;;;4429098;32;20097;-71
2021/11/24 01:43:52;;;;;;;1.27;0.90;;;7.60;99.90;;;;;;4429902;32;20111;-71
2021/11/24 01:46:17;;;;;;;1.85;0.90;;;7.50;99.90;;;;;;4430942;32;20081;-71
2021/11/24 01:48:43;;;;;;;0.47;0.47;;;7.50;99.90;;;;;;4427957;32;20085;-71
2021/11/24 01:51:08;;;;;;;1.87;0.93;;;7.50;99.90;;;;;;4432268;32;20089;-71
2021/11/24 01:53:34;;;;;;;0.80;0.80;;;7.50;99.90;;;;;;4434649;32;20070;-71
2021/11/24 01:56:00;;;;;;;5.57;1.17;;;7.50;99.90;;;;;;4435550;32;20538;-71
2021/11/24 01:58:26;;;;;;;2.83;0.65;;;7.50;99.90;;;;;;4431648;32;20377;-70
2021/11/24 02:00:52;;;;;;;6.68;1.23;;;7.50;99.90;;;;;;4440276;32;20472;-70
2021/11/24 02:03:18;;;;;;;1.50;1.40;;;7.50;99.90;;;;;;4429619;32;20462;-70
2021/11/24 02:05:44;;;;;;;1.25;0.73;;;7.50;99.90;;;;;;4428355;32;20128;-70
2021/11/24 02:08:10;;;;;;;0.62;0.62;;;7.50;99.90;;;;;;4430725;32;20548;-70
2021/11/24 02:10:35;;;;;;;0.95;0.77;;;7.50;99.90;;;;;;4428977;32;20194;-70
2021/11/24 02:13:01;;;;;;;1.98;0.77;;;7.50;99.90;;;;;;4430689;32;20068;-71
2021/11/24 02:15:27;;;;;;;0.30;0.30;;;7.40;99.90;;;;;;4428910;32;20065;-71
2021/11/24 02:17:53;;;;;;;0.47;0.47;;;7.40;99.90;;;;;;4426988;32;20089;-71
2021/11/24 02:20:36;;;;;;;4.78;1.00;;;7.50;99.90;;;;;;4429967;32;20195;-71
2021/11/24 02:23:05;;;;;;;0.52;0.52;;;7.50;99.90;;;;;;4431572;32;20069;-71
2021/11/24 02:25:30;;;;;;;0.62;0.37;;;7.40;99.90;;;;;;4432947;32;20065;-71
2021/11/24 02:27:56;;;;;;;3.03;1.27;;;7.40;99.90;;;;;;4431292;32;20518;-71
2021/11/24 02:30:21;;;;;;;0.57;0.57;;;7.30;99.90;;;;;;4433127;32;20065;-70
2021/11/24 02:32:47;;;;;;;3.30;0.70;;;7.40;99.90;;;;;;4431308;32;20081;-71
2021/11/24 02:35:12;;;;;;;0.93;0.77;;;7.40;99.90;;;;;;4427792;32;20082;-70
2021/11/24 02:37:38;;;;;;;1.45;0.90;;;7.30;99.90;;;;;;4428702;32;20114;-70
2021/11/24 02:40:04;;;;;;;0.80;0.80;;;7.30;99.90;;;;;;4431789;32;20136;-71
2021/11/24 02:42:30;;;;;;;0.60;0.60;;;7.30;99.90;;;;;;4428616;32;20076;-71
2021/11/24 02:44:56;;;;;;;1.80;0.73;;;7.30;99.90;;;;;;4428004;32;20128;-71
2021/11/24 02:47:22;;;;;;;0.30;0.30;;;7.40;99.90;;;;;;4429886;32;20424;-71
2021/11/24 02:49:50;;;;;;;0.40;0.40;;;7.40;99.90;;;;;;4431188;32;20065;-71
2021/11/24 02:52:17;;;;;;;7.78;1.10;;;7.40;99.90;;;;;;4428394;32;20491;-71
2021/11/24 02:54:52;;;;;;;0.90;0.73;;;7.40;99.90;;;;;;4432554;32;20085;-71
2021/11/24 02:57:19;;;;;;;0.75;0.70;;;7.40;99.90;;;;;;4435297;32;20514;-71
2021/11/24 02:59:44;;;;;;;3.40;0.60;;;7.30;99.90;;;;;;4431728;32;20077;-71
2021/11/24 03:02:10;;;;;;;0.50;0.50;;;7.40;99.90;;;;;;4429535;32;20065;-71
2021/11/24 03:04:37;;;;;;;0.50;0.50;;;7.30;99.90;;;;;;4428618;32;20575;-71
2021/11/24 03:07:03;;;;;;;1.45;1.05;;;7.30;99.90;;;;;;4427075;32;20361;-71
2021/11/24 03:09:29;;;;;;;2.87;0.70;;;7.40;99.90;;;;;;4426516;32;20065;-71
2021/11/24 03:11:56;;;;;;;0.43;0.43;;;7.40;99.90;;;;;;4429477;32;20064;-69
2021/11/24 03:14:22;;;;;;;7.95;1.37;;;7.40;99.90;;;;;;4439005;32;20076;-69
2021/11/24 03:16:48;;;;;;;0.70;0.70;;;7.30;99.90;;;;;;4437471;32;20081;-69
2021/11/24 03:19:13;;;;;;;0.68;0.68;;;7.40;99.90;;;;;;4436803;32;20069;-69
2021/11/24 03:21:39;;;;;;;0.60;0.60;;;7.40;99.90;;;;;;4442146;32;20400;-69
2021/11/24 03:24:05;;;;;;;0.55;0.55;;;7.40;99.90;;;;;;4436123;32;20065;-69
2021/11/24 03:26:31;;;;;;;1.60;0.85;;;7.40;99.90;;;;;;4443737;32;20072;-69
2021/11/24 03:28:56;;;;;;;0.50;0.50;;;7.40;99.90;;;;;;4441911;32;20084;-69
2021/11/24 03:31:22;;;;;;;5.43;0.98;;;7.30;99.90;;;;;;4431885;32;20068;-69
2021/11/24 03:33:47;;;;;;;0.95;0.95;;;7.30;99.90;;;;;;4428823;32;20090;-69
2021/11/24 03:36:13;;;;;;;0.65;0.65;;;7.30;99.90;;;;;;4431746;32;20081;-69
2021/11/24 03:38:39;;;;;;;4.18;1.12;;;7.30;99.90;;;;;;4429333;32;20132;-69
2021/11/24 03:41:05;;;;;;;0.73;0.68;;;7.30;99.90;;;;;;4440592;32;20088;-69
2021/11/24 03:43:30;;;;;;;1.33;1.23;;;7.30;99.90;;;;;;4434476;32;20468;-69
2021/11/24 03:45:55;;;;;;;0.43;0.43;;;7.40;99.90;;;;;;4433726;32;20066;-69
2021/11/24 03:48:21;;;;;;;1.37;1.15;;;7.30;99.90;;;;;;4436452;32;20128;-69
2021/11/24 03:50:47;;;;;;;0.40;0.40;;;7.30;99.90;;;;;;4431324;32;20123;-69
2021/11/24 03:53:12;;;;;;;0.70;0.70;;;7.20;99.90;;;;;;4437533;32;20061;-69
2021/11/24 03:55:38;;;;;;;0.85;0.80;;;7.20;99.90;;;;;;4444982;32;20490;-69
2021/11/24 03:58:04;;;;;;;0.77;0.77;;;7.20;99.90;;;;;;4440840;32;20065;-69
2021/11/24 04:00:30;;;;;;;4.18;0.88;;;7.30;99.90;;;;;;4430293;32;20086;-69
2021/11/24 04:02:56;;;;;;;29.70;0.98;;;7.30;99.90;;;;;;4432299;32;20198;-69
2021/11/24 04:05:22;;;;;;;0.50;0.50;;;7.30;99.90;;;;;;4428405;32;20599;-69
2021/11/24 04:07:48;;;;;;;2.15;0.90;;;7.30;99.90;;;;;;4432911;32;20444;-69
2021/11/24 04:10:14;;;;;;;0.70;0.70;;;7.30;99.90;;;;;;4427170;32;20073;-69
2021/11/24 04:12:42;;;;;;;0.82;0.82;;;7.30;99.90;;;;;;4428474;32;20077;-69
2021/11/24 04:15:13;;;;;;;0.88;0.88;;;7.30;99.90;;;;;;4437278;32;20089;-69
2021/11/24 04:17:39;;;;;;;0.60;0.60;;;7.30;99.90;;;;;;4434007;32;20081;-69
2021/11/24 04:20:06;;;;;;;0.50;0.50;;;7.30;99.90;;;;;;4430270;32;20127;-69
2021/11/24 04:22:32;;;;;;;0.85;0.62;;;7.30;99.90;;;;;;4436324;32;20444;-69
2021/11/24 04:24:57;;;;;;;0.50;0.47;;;7.30;99.90;;;;;;4444822;32;20111;-69
2021/11/24 04:27:23;;;;;;;0.47;0.47;;;7.30;99.90;;;;;;4442951;32;20542;-69
2021/11/24 04:29:49;;;;;;;0.60;0.60;;;7.30;99.90;;;;;;4442526;32;20077;-69
2021/11/24 04:32:17;;;;;;;0.60;0.60;;;7.20;99.90;;;;;;4440994;32;86842;-68
2021/11/24 04:34:43;;;;;;;0.68;0.68;;;7.20;99.90;;;;;;4430746;32;20511;-69
2021/11/24 04:37:09;;;;;;;0.82;0.55;;;7.20;99.90;;;;;;4427403;32;20065;-69
2021/11/24 04:39:35;;;;;;;7.00;0.95;;;7.30;99.90;;;;;;4431953;32;20456;-69
2021/11/24 04:42:00;;;;;;;1.85;0.80;;;7.30;99.90;;;;;;4438336;32;20060;-69
2021/11/24 04:44:26;;;;;;;1.30;0.75;;;7.30;99.90;;;;;;4443066;32;20069;-69
2021/11/24 04:46:51;;;;;;;0.70;0.70;;;7.30;99.90;;;;;;4428198;32;20065;-69
2021/11/24 04:49:17;;;;;;;0.50;0.50;;;7.30;99.90;;;;;;4429142;32;20486;-68
2021/11/24 04:51:43;;;;;;;0.37;0.37;;;7.30;99.90;;;;;;4428256;32;20082;-68
2021/11/24 04:54:08;;;;;;;0.73;0.73;;;7.30;99.90;;;;;;4436400;32;20081;-68
2021/11/24 04:56:34;;;;;;;0.57;0.55;;;7.30;99.90;;;;;;4444013;32;20058;-68
2021/11/24 04:59:01;;;;;;;0.40;0.40;;;7.30;99.90;;;;;;4436104;32;20060;-68
2021/11/24 05:01:27;;;;;;;1.20;0.88;;;7.30;99.90;;;;;;4437518;32;20053;-68
2021/11/24 05:03:53;;;;;;;0.30;0.30;;;7.30;99.90;;;;;;4427617;32;20089;-69
2021/11/24 05:06:20;;;;;;;2.30;0.77;;;7.30;99.90;;;;;;4428065;32;20507;-67
2021/11/24 05:08:46;;;;;;;6.45;2.03;;;7.30;99.90;;;;;;4425742;32;20656;-68
2021/11/24 05:11:14;;;;;;;0.43;0.43;;;7.30;99.90;;;;;;4421608;32;20137;-69
2021/11/24 05:13:46;;;;;;;0.70;0.40;;;7.30;99.90;;;;;;4436654;32;20089;-69
2021/11/24 05:16:12;;;;;;;0.88;0.88;;;7.30;99.90;;;;;;4442062;32;20416;-69
2021/11/24 05:18:40;;;;;;;3.55;0.82;;;7.30;99.90;;;;;;4430598;32;20448;-69
2021/11/24 05:21:11;;;;;;;1.08;0.90;;;7.40;99.90;;;;;;4425924;32;20445;-69
2021/11/24 05:23:39;;;;;;;0.37;0.37;;;7.40;99.90;;;;;;4425992;32;20098;-69
2021/11/24 05:26:05;;;;;;;0.57;0.57;;;7.40;99.90;;;;;;4426225;32;20124;-69
2021/11/24 05:28:32;;;;;;;0.30;0.30;;;7.40;99.90;;;;;;4437453;32;20088;-69
2021/11/24 05:30:58;;;;;;;3.05;1.05;;;7.30;99.90;;;;;;4445822;32;20093;-69
2021/11/24 05:33:24;;;;;;;0.70;0.70;;;7.30;99.90;;;;;;4446201;32;20089;-69
2021/11/24 05:35:50;;;;;;;0.57;0.57;;;7.30;99.90;;;;;;4433124;32;20065;-69
2021/11/24 05:38:16;;;;;;;0.47;0.47;;;7.30;99.90;;;;;;4432162;32;20073;-69
2021/11/24 05:40:41;;;;;;;0.40;0.40;;;7.40;99.90;;;;;;4432956;32;20065;-69
2021/11/24 05:43:07;;;;;;;0.70;0.70;;;7.40;99.90;;;;;;4436818;32;20081;-68
2021/11/24 05:48:03;;;;;;;0.50;0.50;;;7.30;99.90;;;;;;4437701;32;20120;-68
2021/11/24 05:50:30;;;;;;;0.50;0.50;;;7.40;99.90;;;;;;4431939;32;20084;-67
2021/11/24 05:52:57;;;;;;;3.53;0.62;;;7.40;99.90;;;;;;4436344;32;20057;-69
2021/11/24 05:55:23;;;;;;;0.65;0.60;;;7.30;99.90;;;;;;4446868;32;20060;-69
2021/11/24 05:57:49;;;;;;;0.75;0.75;;;7.30;99.90;;;;;;4438570;32;20211;-68
2021/11/24 06:00:16;;;;;;;0.73;0.52;;;7.30;99.90;;;;;;4431123;32;20547;-68
2021/11/24 06:02:42;;;;;;;0.60;0.60;;;7.30;99.90;;;;;;4422162;32;20077;-69
2021/11/24 06:05:08;;;;;;;2.25;0.62;;;7.40;99.90;;;;;;4425014;32;20062;-69
2021/11/24 06:07:35;;;;;;;0.60;0.60;;;7.40;99.90;;;;;;4429067;32;20065;-69
2021/11/24 06:10:03;;;;;;;0.57;0.37;;;7.30;99.90;;;;;;4436069;32;20057;-69
2021/11/24 06:12:29;;;;;;;0.90;0.68;;;7.40;99.90;;;;;;4431107;32;20069;-69
2021/11/24 06:14:55;;;;;;;0.68;0.68;;;7.30;99.90;;;;;;4437286;32;20089;-69
2021/11/24 06:17:20;;;;;;;1.30;0.90;;;7.30;99.90;;;;;;4415069;32;21320;-69
2021/11/24 06:19:46;;;;;;;0.57;0.57;;;7.40;99.90;;;;;;4425729;32;20065;-69
2021/11/24 06:22:11;;;;;;;1.17;0.70;;;7.40;99.90;;;;;;4429111;32;20499;-69
2021/11/24 06:24:38;;;;;;;1.73;1.02;;;7.30;99.90;;;;;;4439494;32;20069;-69
2021/11/24 06:27:03;;;;;;;0.62;0.62;;;7.30;99.90;;;;;;4420548;32;20069;-69
2021/11/24 06:29:29;;;;;;;3.20;0.60;;;7.40;99.90;;;;;;4423229;32;20577;-70
2021/11/24 06:31:57;;;;;;;2.37;0.88;;;7.40;99.90;;;;;;4404457;32;20089;-69
2021/11/24 06:34:22;;;;;;;1.37;0.60;;;7.40;99.90;;;;;;4424883;32;20066;-69
2021/11/24 06:36:48;;;;;;;1.08;0.62;;;7.40;99.90;;;;;;4427842;32;20093;-68
2021/11/24 06:39:15;;;;;;;4.30;1.00;;;7.40;99.90;;;;;;4420610;32;20184;-69
2021/11/24 06:41:42;;;;;;;1.08;0.68;;;7.40;99.90;;;;;;4430211;32;20101;-70
2021/11/24 06:44:07;;;;;;;1.20;0.60;;;7.40;99.90;;;;;;4426942;32;20281;-68
2021/11/24 06:46:35;;;;;;;0.60;0.60;;;7.40;99.90;;;;;;4419250;32;20231;-69
2021/11/24 06:49:02;;;;;;;3.22;1.40;;;7.30;99.90;;;;;;4422669;32;20588;-69
2021/11/24 06:51:27;;;;;;;0.40;0.40;;;7.40;99.90;;;;;;4419675;32;20566;-68
2021/11/24 06:53:53;;;;;;;2.30;0.70;;;7.40;99.90;;;;;;4417407;32;20122;-69
2021/11/24 06:56:18;;;;;;;0.60;0.60;;;7.30;99.90;;;;;;4415529;32;20089;-70
2021/11/24 06:58:44;;;;;;;2.87;1.27;;;7.40;99.90;;;;;;4415470;32;20105;-69
2021/11/24 07:01:10;;;;;;;2.05;0.50;;;7.40;99.90;;;;;;4414963;32;20684;-70
2021/11/24 07:03:35;;;;;;;0.50;0.50;;;7.40;99.90;;;;;;4417097;32;20462;-70
2021/11/24 07:06:01;;;;;;;0.43;0.43;;;7.40;99.90;;;;;;4414890;32;20096;-70
2021/11/24 07:08:28;;;;;;;0.55;0.55;;;7.40;99.90;;;;;;4413622;32;20069;-69
2021/11/24 07:10:53;;;;;;;3.55;0.88;;;7.40;99.90;;;;;;4420471;32;20090;-69
2021/11/24 07:13:19;;;;;;;0.35;0.35;;;7.40;99.90;;;;;;4412391;32;20123;-70
2021/11/24 07:15:44;;;;;;;2.58;0.73;;;7.40;99.90;;;;;;4408366;32;20154;-70
2021/11/24 07:18:10;;;;;;;0.85;0.68;;;7.30;99.90;;;;;;4410326;32;20065;-70
2021/11/24 07:20:35;;;;;;;0.62;0.60;;;7.30;99.90;;;;;;4411733;32;20096;-69
2021/11/24 07:23:02;;;;;;;1.20;0.80;;;7.40;99.90;;;;;;4417589;32;20089;-69
2021/11/24 07:25:29;;;;;;;0.93;0.68;;;7.40;99.90;;;;;;4418746;32;20427;-70
2021/11/24 07:27:55;;;;;;;3.20;1.10;;;7.40;99.90;;;;;;4420683;32;20140;-70
2021/11/24 07:30:21;;;;;;;1.10;0.95;;;7.40;99.90;;;;;;4413758;32;20439;-69
2021/11/24 07:32:47;;;;;;;1.10;0.70;;;7.40;99.90;;;;;;4416278;32;20074;-70
2021/11/24 07:35:13;;;;;;;0.75;0.50;;;7.40;99.90;;;;;;4408927;32;20726;-70
2021/11/24 07:37:38;;;;;;;1.17;0.85;;;7.50;99.90;;;;;;4414476;32;20563;-70
2021/11/24 07:40:07;;;;;;;7.25;0.98;;;7.40;99.90;;;;;;4411762;32;20506;-70
2021/11/24 07:42:33;;;;;;;1.73;0.68;;;7.40;99.90;;;;;;4409040;32;20574;-69
2021/11/24 07:44:59;;;;;;;0.70;0.70;;;7.50;99.90;;;;;;4401561;32;20077;-69
2021/11/24 07:47:24;;;;;;;1.33;0.68;;;7.40;99.90;;;;;;4406952;32;20137;-69
2021/11/24 07:49:50;;;;;;;0.50;0.50;;;7.40;99.90;;;;;;4401619;32;20574;-69
2021/11/24 07:52:16;;;;;;;3.55;1.25;;;7.40;99.90;;;;;;4407238;32;20121;-69
2021/11/24 07:54:42;;;;;;;0.70;0.70;;;7.50;99.90;;;;;;4405801;32;20076;-69
2021/11/24 07:57:07;;;;;;;8.52;1.40;;;7.50;99.90;;;;;;4414712;32;20145;-69
2021/11/24 07:59:34;;;;;;;0.88;0.70;;;7.40;99.90;;;;;;4416440;32;20086;-69
2021/11/24 08:02:00;;;;;;;1.83;1.12;;;7.40;99.90;;;;;;4412218;32;20105;-69
2021/11/24 08:04:27;;;;;;;0.65;0.65;;;7.40;99.90;;;;;;4418224;32;20101;-70
2021/11/24 08:06:53;;;;;;;0.50;0.50;;;7.40;99.90;;;;;;4414459;32;20591;-72
2021/11/24 08:09:19;;;;;;;1.12;0.85;;;7.40;99.90;;;;;;4406503;32;20081;-72
2021/11/24 08:11:44;;;;;;;0.68;0.68;;;7.50;99.90;;;;;;4412135;32;20517;-71
2021/11/24 08:14:11;;;;;;;0.50;0.50;;;7.40;99.90;;;;;;4412068;32;20139;-71
2021/11/24 08:16:36;;;;;;;3.55;1.23;;;7.50;99.90;;;;;;4411383;32;20081;-72
2021/11/24 08:19:03;;;;;;;1.33;0.77;;;7.60;99.90;;;;;;4406768;32;20176;-71
2021/11/24 08:21:28;;;;;;;1.52;0.95;;;7.50;99.90;;;;;;4406978;32;20200;-71
2021/11/24 08:23:54;;;;;;;1.75;0.70;;;7.50;99.90;;;;;;4408595;32;20139;-72
2021/11/24 08:26:19;;;;;;;2.65;0.60;;;7.40;99.90;;;;;;4404635;32;20088;-72
2021/11/24 08:28:45;;;;;;;1.15;0.95;;;7.50;99.90;;;;;;4404179;32;20097;-69
2021/11/24 08:31:10;;;;;;;1.37;0.60;;;7.60;99.90;;;;;;4404121;32;20764;-69
2021/11/24 08:33:37;;;;;;;0.60;0.60;;;7.60;99.90;;;;;;4399129;32;20440;-69
2021/11/24 08:36:04;;;;;;;1.75;1.30;;;7.60;99.90;;;;;;4406548;32;20515;-70
2021/11/24 08:38:30;;;;;;;1.27;0.60;;;7.70;99.90;;;;;;4412314;32;20086;-68
2021/11/24 08:40:56;;;;;;;1.23;0.93;;;7.70;99.90;;;;;;4410152;32;20062;-68
2021/11/24 08:43:22;;;;;;;0.65;0.65;;;7.70;99.90;;;;;;4414108;32;20117;-68
2021/11/24 08:45:48;;;;;;;0.60;0.60;;;7.70;99.90;;;;;;4407869;32;20186;-69
2021/11/24 08:48:14;;;;;;;0.62;0.40;;;7.80;99.90;;;;;;4412615;32;20534;-68
2021/11/24 08:50:40;;;;;;;1.65;0.93;;;7.80;99.90;;;;;;4414342;32;20543;-68
2021/11/24 08:53:06;;;;;;;0.40;0.40;;;7.80;99.90;;;;;;4412099;32;20077;-69
2021/11/24 08:55:31;;;;;;;0.60;0.60;;;7.80;99.90;;;;;;4415972;32;20077;-69
2021/11/24 08:57:58;;;;;;;2.35;1.25;;;7.80;99.90;;;;;;4417845;32;20158;-69
2021/11/24 09:00:24;;;;;;;1.55;0.50;;;7.80;99.90;;;;;;4420837;32;20540;-69
2021/11/24 09:02:50;;;;;;;11.12;1.40;;;7.70;99.90;;;;;;4422609;32;20740;-69
2021/11/24 09:05:18;;;;;;;1.33;0.60;;;7.80;99.90;;;;;;4424658;32;20588;-68
2021/11/24 09:07:46;;;;;;;0.80;0.80;;;7.80;99.90;;;;;;4419407;32;20161;-69
2021/11/24 09:10:12;;;;;;;3.10;0.95;;;7.90;99.90;;;;;;4418163;32;20740;-69
2021/11/24 09:12:37;;;;;;;0.45;0.45;;;7.80;99.90;;;;;;4420323;32;20072;-70
2021/11/24 09:15:04;;;;;;;0.65;0.65;;;7.80;99.90;;;;;;4418193;32;20081;-69
2021/11/24 09:17:30;;;;;;;0.55;0.45;;;7.70;99.90;;;;;;4424920;32;20097;-70
2021/11/24 09:19:56;;;;;;;0.65;0.65;;;7.80;99.90;;;;;;4423380;32;20124;-70
2021/11/24 09:22:22;;;;;;;4.28;1.10;;;7.70;99.90;;;;;;4423469;32;20068;-69
2021/11/24 09:24:53;;;;;;;0.50;0.50;;;7.70;99.90;;;;;;4421374;32;20490;-68
2021/11/24 09:27:28;;;;;;;;;;;7.70;99.90;;;;;;4416381;32;20777;-69
2021/11/24 09:29:53;;;;;;;0.45;0.45;;;7.80;99.90;;;;;;4414250;32;20336;-68
2021/11/24 09:32:19;;;;;;;0.40;0.40;;;7.80;99.90;;;;;;4420012;32;20089;-69
2021/11/24 09:34:44;;;;;;;2.67;0.70;;;7.90;99.90;;;;;;4417223;32;20127;-69
2021/11/24 09:37:10;;;;;;;4.18;0.93;;;7.80;99.90;;;;;;4422047;32;20093;-68
2021/11/24 09:39:35;;;;;;;0.47;0.47;;;7.80;99.90;;;;;;4416655;32;20074;-68
2021/11/24 09:42:03;;;;;;;0.47;0.47;;;7.90;99.90;;;;;;4415864;32;20070;-71
2021/11/24 09:44:31;;;;;;;1.05;0.95;;;7.90;99.90;;;;;;4422389;32;20069;-69
2021/11/24 09:46:57;;;;;;;3.45;1.58;;;7.90;99.90;;;;;;4420987;32;20057;-68
2021/11/24 09:49:25;;;;;;;4.37;2.25;;;8.00;99.90;;;;;;4414227;32;20212;-68
2021/11/24 09:51:52;;;;;;;0.50;0.50;;;8.00;99.90;;;;;;4413922;32;20097;-68
2021/11/24 09:54:18;;;;;;;5.72;1.15;;;8.00;99.90;;;;;;4416661;32;20081;-68
2021/11/24 09:56:45;;;;;;;2.03;0.57;;;8.00;99.90;;;;;;4418957;32;20081;-68
2021/11/24 09:59:12;;;;;;;0.70;0.52;;;8.00;99.90;;;;;;4418125;32;20061;-68
2021/11/24 10:01:39;;;;;;;0.50;0.50;;;8.00;99.90;;;;;;4418522;32;20105;-68
2021/11/24 10:04:06;;;;;;;1.15;1.05;;;8.10;99.90;;;;;;4419138;32;20388;-69
2021/11/24 10:06:34;;;;;;;0.70;0.70;;;8.10;99.90;;;;;;4414716;32;20085;-68
2021/11/24 10:09:01;;;;;;;0.65;0.65;;;8.10;99.90;;;;;;4415383;32;20148;-68
2021/11/24 10:11:27;;;;;;;4.55;1.23;;;8.00;99.90;;;;;;4417071;32;20077;-70
2021/11/24 10:13:53;;;;;;;0.50;0.50;;;8.00;99.90;;;;;;4415204;32;24717;-69
2021/11/24 10:16:21;;;;;;;2.50;0.77;;;8.00;99.90;;;;;;4416078;32;20186;-70
2021/11/24 10:19:12;;;;;;;0.32;0.32;;;8.00;99.90;;;;;;4414262;32;20078;-70
2021/11/24 10:21:55;;;;;;;0.52;0.52;;;8.00;99.90;;;;;;4415070;32;20093;-68
2021/11/24 10:24:34;;;;;;;0.52;0.52;;;8.00;99.90;;;;;;4409684;32;20097;-69
2021/11/24 10:27:02;;;;;;;0.40;0.40;;;7.90;99.90;;;;;;4414117;32;20084;-71
2021/11/24 10:29:28;;;;;;;0.52;0.52;;;8.00;99.90;;;;;;4411860;32;20113;-71
2021/11/24 10:31:58;;;;;;;0.73;0.43;;;8.10;99.90;;;;;;4409845;32;20105;-71
2021/11/24 10:34:41;;;;;;;1.33;0.80;;;8.10;99.90;;;;;;4409056;32;20713;-70
2021/11/24 10:37:10;;;;;;;1.33;0.60;;;8.10;99.90;;;;;;4413784;32;20117;-69
2021/11/24 10:39:40;;;;;;;6.72;1.15;;;8.20;99.90;;;;;;4419548;32;20061;-70
2021/11/24 10:42:11;;;;;;;1.83;1.12;;;8.10;99.90;;;;;;4416796;32;20060;-70
2021/11/24 10:44:38;;;;;;;0.40;0.40;;;8.20;99.90;;;;;;4421773;32;20061;-71
2021/11/24 10:47:07;;;;;;;0.93;0.85;;;8.20;99.90;;;;;;4418524;32;20076;-70
2021/11/24 10:49:36;;;;;;;0.98;0.60;;;8.30;99.90;;;;;;4417023;32;20420;-69
2021/11/24 10:52:23;;;;;;;0.45;0.45;;;8.30;99.90;;;;;;4419284;32;20065;-69
2021/11/24 10:55:11;;;;;;;1.23;0.75;;;8.30;99.90;;;;;;4413314;32;20068;-71
2021/11/24 10:57:41;;;;;;;0.55;0.55;;;8.30;99.90;;;;;;4415364;32;20416;-70
2021/11/24 11:00:17;;;;;;;0.45;0.45;;;8.30;99.90;;;;;;4412441;32;20077;-70
2021/11/24 11:02:45;;;;;;;0.60;0.60;;;8.30;99.90;;;;;;4411484;32;20102;-69
2021/11/24 11:05:22;;;;;;;0.70;0.60;;;8.20;99.90;;;;;;4417257;32;20125;-70
2021/11/24 11:07:52;;;;;;;0.50;0.50;;;8.20;99.90;;;;;;4411267;32;20220;-70
2021/11/24 11:10:37;;;;;;;0.73;0.70;;;8.20;99.90;;;;;;4420057;32;20662;-70
2021/11/24 11:13:11;;;;;;;0.55;0.50;;;8.30;99.90;;;;;;4412441;32;20190;-70
2021/11/24 11:15:42;;;;;;;0.40;0.40;;;8.30;99.90;;;;;;4416014;32;20570;-70
2021/11/24 11:18:11;;;;;;;1.15;0.70;;;8.40;99.90;;;;;;4415866;32;20547;-70
2021/11/24 11:20:51;;;;;;;0.80;0.60;;;8.50;99.90;;;;;;4417448;32;20625;-69
2021/11/24 11:23:23;;;;;;;3.30;0.85;;;8.50;99.90;;;;;;4416745;32;20069;-70
2021/11/24 11:25:56;;;;;;;0.43;0.43;;;8.50;99.90;;;;;;4418489;32;20143;-70
2021/11/24 11:28:24;;;;;;;0.50;0.50;;;8.50;99.90;;;;;;4415179;32;20164;-71
2021/11/24 11:30:53;;;;;;;0.93;0.70;;;8.60;99.90;;;;;;4418227;32;20065;-69
2021/11/24 11:33:24;;;;;;;0.65;0.65;;;8.70;99.90;;;;;;4414142;32;20072;-69
2021/11/24 11:35:49;;;;;;;1.65;1.45;;;8.70;99.90;;;;;;4416537;32;20065;-68
2021/11/24 11:38:18;;;;;;;2.62;0.93;;;8.80;99.90;;;;;;4418968;32;20228;-68
2021/11/24 11:40:45;;;;;;;0.30;0.30;;;8.70;99.90;;;;;;4421713;32;20147;-69
2021/11/24 11:43:12;;;;;;;0.37;0.37;;;8.70;99.90;;;;;;4415248;32;20128;-68
2021/11/24 11:45:39;;;;;;;0.28;0.28;;;8.80;99.90;;;;;;4407256;32;20171;-69
2021/11/24 11:48:06;;;;;;;0.50;0.50;;;9.10;99.90;;;;;;4410197;32;20750;-68
2021/11/24 11:51:00;;;;;;;0.40;0.40;;;9.60;99.90;;;;;;4409621;32;20492;-69
2021/11/24 11:53:33;;;;;;;0.40;0.40;;;10.10;99.90;;;;;;4402535;32;20834;-69
2021/11/24 11:56:11;;;;;;;0.35;0.35;;;10.20;99.90;;;;;;4404098;32;20125;-69
2021/11/24 11:59:00;;;;;;;0.40;0.40;;;10.20;99.90;;;;;;4406708;32;20074;-69
2021/11/24 12:01:35;;;;;;;0.30;0.30;;;10.00;99.90;;;;;;4397886;32;20515;-68
2021/11/24 12:04:03;;;;;;;0.40;0.40;;;9.90;99.90;;;;;;4403102;32;20085;-68
2021/11/24 12:06:34;;;;;;;0.37;0.37;;;10.00;99.90;;;;;;4408361;32;20690;-69
2021/11/24 12:09:11;;;;;;;0.30;0.30;;;9.80;99.90;;;;;;4410327;32;20085;-69
2021/11/24 12:12:05;;;;;;;0.30;0.30;;;9.70;99.90;;;;;;4410311;32;20134;-69
2021/11/24 12:14:50;;;;;;;0.30;0.30;;;9.30;99.90;;;;;;4410717;32;20089;-69
2021/11/24 12:17:37;;;;;;;0.73;0.70;;;9.20;99.90;;;;;;4409774;32;20089;-69
2021/11/24 12:20:27;;;;;;;1.75;1.00;;;9.20;99.90;;;;;;4409836;32;20121;-68
2021/11/24 12:22:56;;;;;;;0.85;0.75;;;9.20;99.90;;;;;;4416017;32;20077;-69
2021/11/24 12:25:25;;;;;;;1.17;0.40;;;9.30;99.90;;;;;;4414893;32;20097;-69
2021/11/24 12:27:53;;;;;;;0.40;0.40;;;9.40;99.90;;;;;;4413425;32;20105;-69
2021/11/24 12:30:40;;;;;;;1.08;0.60;;;9.30;99.90;;;;;;4412997;32;20136;-68
2021/11/24 12:33:27;;;;;;;0.55;0.52;;;9.30;99.90;;;;;;4412840;32;20105;-69
2021/11/24 12:36:00;;;;;;;1.45;0.50;;;9.30;99.90;;;;;;4413940;32;20266;-69
2021/11/24 12:38:31;;;;;;;0.50;0.50;;;9.30;99.90;;;;;;4417145;32;20069;-70
2021/11/24 12:40:59;;;;;;;4.65;1.10;;;9.30;99.90;;;;;;4412352;32;20359;-70
2021/11/24 12:43:28;;;;;;;0.50;0.50;;;9.40;99.90;;;;;;4401085;32;20417;-70
2021/11/24 12:46:15;;;;;;;2.05;0.90;;;9.40;99.90;;;;;;4397246;32;20120;-69
2021/11/24 12:48:52;;;;;;;0.30;0.30;;;9.40;99.90;;;;;;4404348;32;20085;-70
2021/11/24 12:51:20;;;;;;;0.50;0.50;;;9.50;99.90;;;;;;4410847;32;20155;-70
2021/11/24 12:54:07;;;;;;;0.30;0.30;;;9.50;99.90;;;;;;4413940;32;20072;-69
2021/11/24 12:56:38;;;;;;;0.37;0.37;;;9.50;99.90;;;;;;4419058;32;20072;-70
2021/11/24 12:59:06;;;;;;;0.52;0.52;;;9.40;99.90;;;;;;4416730;32;20972;-69
2021/11/24 13:01:36;;;;;;;0.45;0.45;;;9.30;99.90;;;;;;4423106;32;20073;-69
2021/11/24 13:04:06;;;;;;;0.30;0.30;;;9.20;99.90;;;;;;4423156;32;20082;-70